createdAt,value
2017-06-16T00:00:45.538Z,3.93
2017-06-16T00:03:15.349Z,3.90
2017-06-16T00:05:43.671Z,4.27
2017-06-16T00:08:11.946Z,4.57
2017-06-16T00:10:41.736Z,3.20
2017-06-16T00:13:11.427Z,2.60
2017-06-16T00:15:39.976Z,3.90
2017-06-16T00:18:09.023Z,3.40
2017-06-16T00:20:37.348Z,3.23
2017-06-16T00:23:06.759Z,3.43
2017-06-16T00:25:35.072Z,3.53
2017-06-16T00:28:03.416Z,4.20
2017-06-16T00:30:31.694Z,3.17
2017-06-16T00:32:59.971Z,3.53
2017-06-16T00:35:29.060Z,3.57
2017-06-16T00:37:58.103Z,3.60
2017-06-16T00:40:26.387Z,3.30
2017-06-16T00:42:55.115Z,3.73
2017-06-16T00:45:24.175Z,2.83
2017-06-16T00:47:53.638Z,3.77
2017-06-16T00:50:23.318Z,3.17
2017-06-16T00:52:51.479Z,3.33
2017-06-16T00:55:20.162Z,4.57
2017-06-16T00:57:49.278Z,3.50
2017-06-16T01:00:18.355Z,4.40
2017-06-16T01:02:46.659Z,4.73
2017-06-16T01:05:15.023Z,3.43
2017-06-16T01:07:43.293Z,3.27
2017-06-16T01:10:12.998Z,3.53
2017-06-16T01:12:41.199Z,4.00
2017-06-16T01:15:09.478Z,4.10
2017-06-16T01:17:37.759Z,3.83
2017-06-16T01:20:06.115Z,4.20
2017-06-16T01:22:35.180Z,3.77
2017-06-16T01:25:03.466Z,3.77
2017-06-16T01:27:31.790Z,4.80
2017-06-16T01:30:00.075Z,4.20
2017-06-16T01:32:29.706Z,4.00
2017-06-16T01:34:57.931Z,4.17
2017-06-16T01:37:26.207Z,4.10
2017-06-16T01:39:54.491Z,4.90
2017-06-16T01:42:24.187Z,4.60
2017-06-16T01:44:52.335Z,5.70
2017-06-16T01:47:21.399Z,4.90
2017-06-16T01:49:50.871Z,5.00
2017-06-16T01:52:19.168Z,4.60
2017-06-16T01:54:48.829Z,4.90
2017-06-16T01:57:17.444Z,5.10
2017-06-16T01:59:46.895Z,4.33
2017-06-16T02:02:15.979Z,6.00
2017-06-16T02:04:45.095Z,5.70
2017-06-16T02:07:13.371Z,5.70
2017-06-16T02:09:41.643Z,5.50
2017-06-16T02:12:09.970Z,5.43
2017-06-16T02:14:39.755Z,6.07
2017-06-16T02:17:08.035Z,6.27
2017-06-16T02:19:37.503Z,6.03
2017-06-16T02:22:05.800Z,6.43
2017-06-16T02:24:34.095Z,7.17
2017-06-16T02:27:02.430Z,6.30
2017-06-16T02:29:30.708Z,6.63
2017-06-16T02:31:58.996Z,7.33
2017-06-16T02:34:27.318Z,7.23
2017-06-16T02:36:55.594Z,6.50
2017-06-16T02:39:25.479Z,8.37
2017-06-16T02:41:53.816Z,8.67
2017-06-16T02:44:22.868Z,7.63
2017-06-16T02:46:51.187Z,6.57
2017-06-16T02:49:19.540Z,8.33
2017-06-16T02:51:49.374Z,6.90
2017-06-16T02:54:17.667Z,6.67
2017-06-16T02:56:46.027Z,6.93
2017-06-16T02:59:14.313Z,7.87
2017-06-16T03:01:42.599Z,6.53
2017-06-16T03:04:11.703Z,6.73
2017-06-16T03:06:39.984Z,6.70
2017-06-16T03:09:20.245Z,6.70
2017-06-16T03:11:49.311Z,6.70
2017-06-16T03:14:18.743Z,7.10
2017-06-16T03:16:47.086Z,7.23
2017-06-16T03:19:16.736Z,6.63
2017-06-16T03:21:51.788Z,6.90
2017-06-16T03:24:40.255Z,8.20
2017-06-16T03:27:08.850Z,6.80
2017-06-16T03:29:37.122Z,7.47
2017-06-16T03:32:05.446Z,7.00
2017-06-16T03:34:33.798Z,7.97
2017-06-16T03:37:02.083Z,7.57
2017-06-16T03:39:31.131Z,8.20
2017-06-16T03:41:59.482Z,6.47
2017-06-16T03:44:27.775Z,7.80
2017-06-16T03:46:56.059Z,8.80
2017-06-16T03:49:25.107Z,6.80
2017-06-16T03:51:54.151Z,6.30
2017-06-16T03:54:22.430Z,7.33
2017-06-16T03:56:50.792Z,7.90
2017-06-16T03:59:20.438Z,7.60
2017-06-16T04:01:49.002Z,8.13
2017-06-16T04:04:18.718Z,7.37
2017-06-16T04:06:47.660Z,9.00
2017-06-16T04:09:16.755Z,8.70
2017-06-16T04:11:45.115Z,8.30
2017-06-16T04:14:13.411Z,8.27
2017-06-16T04:16:42.827Z,8.13
2017-06-16T04:19:11.155Z,8.90
2017-06-16T04:21:39.434Z,8.37
2017-06-16T04:24:08.605Z,7.47
2017-06-16T04:26:38.050Z,8.87
2017-06-16T04:29:06.339Z,8.33
2017-06-16T04:31:34.639Z,8.90
2017-06-16T04:34:04.554Z,7.77
2017-06-16T04:36:32.842Z,10.40
2017-06-16T04:39:03.226Z,9.10
2017-06-16T04:41:32.291Z,10.07
2017-06-16T04:44:00.967Z,8.97
2017-06-16T04:46:29.254Z,10.93
2017-06-16T04:48:58.346Z,9.43
2017-06-16T04:51:26.631Z,9.50
2017-06-16T04:53:55.838Z,9.40
2017-06-16T04:56:25.530Z,9.53
2017-06-16T04:58:54.955Z,10.00
2017-06-16T05:01:23.240Z,11.13
2017-06-16T05:03:51.958Z,9.97
2017-06-16T05:06:20.267Z,8.40
2017-06-16T05:08:49.337Z,9.00
2017-06-16T05:11:17.684Z,7.80
2017-06-16T05:13:46.006Z,8.07
2017-06-16T05:16:15.683Z,7.90
2017-06-16T05:18:44.347Z,8.47
2017-06-16T05:21:12.627Z,7.20
2017-06-16T05:23:40.907Z,8.00
2017-06-16T05:26:09.999Z,8.17
2017-06-16T05:28:39.634Z,7.47
2017-06-16T05:31:08.596Z,7.20
2017-06-16T05:33:36.934Z,7.90
2017-06-16T05:36:06.379Z,6.80
2017-06-16T05:38:34.675Z,7.37
2017-06-16T05:41:03.014Z,7.27
2017-06-16T05:43:32.813Z,5.60
2017-06-16T05:46:01.863Z,7.97
2017-06-16T05:48:30.211Z,6.40
2017-06-16T05:50:59.263Z,6.60
2017-06-16T05:53:27.559Z,6.77
2017-06-16T05:55:55.935Z,6.13
2017-06-16T05:58:24.229Z,7.90
2017-06-16T06:00:53.895Z,5.93
2017-06-16T06:03:22.554Z,6.70
2017-06-16T06:05:52.207Z,7.00
2017-06-16T06:08:20.783Z,6.97
2017-06-16T06:10:49.123Z,6.40
2017-06-16T06:13:18.197Z,5.23
2017-06-16T06:15:46.517Z,6.33
2017-06-16T06:18:14.884Z,6.43
2017-06-16T06:20:43.171Z,6.10
2017-06-16T06:23:12.802Z,4.67
2017-06-16T06:25:41.778Z,5.70
2017-06-16T06:28:10.840Z,5.73
2017-06-16T06:30:39.142Z,6.00
2017-06-16T06:33:07.484Z,4.40
2017-06-16T06:35:35.779Z,5.33
2017-06-16T06:38:04.059Z,5.73
2017-06-16T06:40:33.927Z,5.03
2017-06-16T06:43:02.215Z,4.90
2017-06-16T06:45:30.498Z,6.57
2017-06-16T06:47:59.183Z,4.70
2017-06-16T06:53:29.123Z,4.47
2017-06-16T06:55:58.170Z,4.43
2017-06-16T06:58:27.963Z,4.73
2017-06-16T07:00:57.058Z,4.70
2017-06-16T07:03:26.490Z,6.13
2017-06-16T07:05:54.779Z,4.80
2017-06-16T07:08:24.626Z,5.20
2017-06-16T07:10:52.931Z,5.60
2017-06-16T07:13:21.231Z,5.10
2017-06-16T07:15:49.976Z,4.20
2017-06-16T07:18:18.275Z,5.13
2017-06-16T07:20:47.795Z,5.27
2017-06-16T07:23:16.921Z,4.00
2017-06-16T07:25:46.003Z,4.70
2017-06-16T07:28:15.427Z,4.67
2017-06-16T07:30:45.168Z,4.20
2017-06-16T07:33:13.730Z,4.33
2017-06-16T07:35:42.076Z,4.17
2017-06-16T07:38:10.415Z,4.40
2017-06-16T07:40:38.702Z,3.50
2017-06-16T07:43:08.132Z,4.20
2017-06-16T07:45:37.227Z,3.40
2017-06-16T07:48:06.302Z,4.30
2017-06-16T07:50:35.010Z,3.83
2017-06-16T07:53:03.331Z,4.20
2017-06-16T07:55:31.622Z,3.30
2017-06-16T07:57:59.915Z,3.83
2017-06-16T08:00:29.411Z,3.87
2017-06-16T08:02:57.691Z,3.53
2017-06-16T08:05:27.314Z,3.47
2017-06-16T08:07:56.279Z,5.07
2017-06-16T08:10:24.566Z,3.90
2017-06-16T08:12:53.615Z,3.90
2017-06-16T08:15:21.959Z,4.87
2017-06-16T08:17:51.751Z,4.13
2017-06-16T08:20:21.414Z,3.80
2017-06-16T08:22:50.024Z,4.60
2017-06-16T08:25:19.699Z,3.70
2017-06-16T08:27:48.277Z,3.47
2017-06-16T08:30:16.636Z,3.60
2017-06-16T08:32:44.994Z,3.90
2017-06-16T08:35:14.615Z,3.27
2017-06-16T08:37:42.842Z,3.60
2017-06-16T08:40:11.131Z,3.90
2017-06-16T08:42:40.754Z,3.50
2017-06-16T08:45:09.719Z,3.53
2017-06-16T08:47:37.999Z,2.83
2017-06-16T08:50:06.302Z,3.53
2017-06-16T08:52:35.402Z,3.90
2017-06-16T08:55:03.694Z,3.10
2017-06-16T08:57:32.743Z,3.53
2017-06-16T09:00:01.471Z,2.73
2017-06-16T09:02:29.747Z,3.40
2017-06-16T09:04:58.022Z,3.07
2017-06-16T09:07:26.353Z,3.00
2017-06-16T09:09:54.631Z,3.00
2017-06-16T09:12:24.047Z,2.27
2017-06-16T09:14:53.137Z,3.13
2017-06-16T09:17:22.923Z,3.00
2017-06-16T09:19:52.707Z,3.20
2017-06-16T09:22:21.037Z,3.07
2017-06-16T09:24:49.726Z,2.70
2017-06-16T09:27:18.025Z,2.67
2017-06-16T09:29:47.875Z,2.63
2017-06-16T09:32:16.220Z,3.17
2017-06-16T09:34:45.272Z,3.10
2017-06-16T09:37:14.375Z,3.37
2017-06-16T09:39:43.442Z,3.17
2017-06-16T09:42:13.486Z,3.27
2017-06-16T09:44:41.816Z,2.53
2017-06-16T09:47:10.095Z,3.03
2017-06-16T09:49:38.375Z,3.17
2017-06-16T09:52:06.722Z,3.20
2017-06-16T09:54:36.164Z,3.53
2017-06-16T09:57:05.243Z,2.93
2017-06-16T09:59:34.352Z,2.63
2017-06-16T10:02:02.627Z,2.50
2017-06-16T10:04:31.684Z,4.17
2017-06-16T10:07:01.150Z,3.87
2017-06-16T10:09:29.831Z,2.60
2017-06-16T10:11:58.230Z,2.77
2017-06-16T10:14:27.911Z,2.73
2017-06-16T10:19:51.077Z,3.30
2017-06-16T10:22:19.248Z,3.70
2017-06-16T10:24:48.908Z,3.20
2017-06-16T10:27:17.917Z,4.17
2017-06-16T10:29:46.235Z,2.50
2017-06-16T10:32:14.526Z,2.40
2017-06-16T10:34:43.739Z,2.57
2017-06-16T10:37:12.024Z,2.80
2017-06-16T10:39:40.303Z,2.60
2017-06-16T10:42:10.005Z,2.73
2017-06-16T10:44:38.547Z,2.90
2017-06-16T10:47:07.219Z,2.37
2017-06-16T10:49:37.256Z,1.93
2017-06-16T10:52:05.951Z,2.53
2017-06-16T10:54:34.635Z,2.47
2017-06-16T10:57:02.960Z,2.07
2017-06-16T10:59:31.243Z,3.87
2017-06-16T11:02:01.030Z,2.30
2017-06-16T11:04:29.370Z,3.07
2017-06-16T11:06:57.654Z,2.60
2017-06-16T11:09:25.932Z,3.40
2017-06-16T11:11:54.283Z,2.37
2017-06-16T11:14:22.558Z,2.53
2017-06-16T11:16:52.186Z,2.50
2017-06-16T11:19:21.911Z,2.27
2017-06-16T11:21:50.209Z,2.40
2017-06-16T11:24:18.505Z,3.40
2017-06-16T11:26:46.881Z,3.30
2017-06-16T11:29:16.714Z,2.40
2017-06-16T11:31:44.995Z,2.50
2017-06-16T11:34:13.343Z,2.90
2017-06-16T11:36:41.618Z,3.70
2017-06-16T11:39:11.246Z,2.10
2017-06-16T11:41:39.847Z,2.43
2017-06-16T11:44:08.882Z,2.60
2017-06-16T11:46:38.514Z,2.90
2017-06-16T11:49:07.203Z,2.33
2017-06-16T11:51:35.486Z,2.50
2017-06-16T11:54:03.763Z,1.90
2017-06-16T11:56:32.078Z,2.30
2017-06-16T11:59:00.370Z,2.90
2017-06-16T12:01:28.647Z,2.50
2017-06-16T12:03:57.122Z,2.67
2017-06-16T12:06:26.535Z,3.20
2017-06-16T12:08:54.822Z,2.40
2017-06-16T12:11:23.196Z,3.17
2017-06-16T12:13:51.495Z,2.90
2017-06-16T12:16:21.312Z,2.13
2017-06-16T12:18:49.729Z,3.57
2017-06-16T12:21:18.854Z,2.67
2017-06-16T12:23:47.924Z,3.50
2017-06-16T12:26:17.056Z,2.60
2017-06-16T12:28:46.742Z,2.47
2017-06-16T12:31:15.455Z,3.13
2017-06-16T12:33:43.824Z,2.63
2017-06-16T12:36:15.168Z,3.27
2017-06-16T12:38:43.513Z,2.47
2017-06-16T12:41:11.823Z,2.50
2017-06-16T12:43:40.098Z,2.40
2017-06-16T12:46:08.431Z,2.23
2017-06-16T12:48:38.243Z,3.20
2017-06-16T12:51:06.945Z,2.40
2017-06-16T12:53:35.273Z,2.40
2017-06-16T12:56:05.552Z,2.70
2017-06-16T12:58:34.228Z,2.50
2017-06-16T13:01:02.506Z,3.97
2017-06-16T13:03:31.163Z,3.30
2017-06-16T13:05:59.839Z,2.43
2017-06-16T13:08:28.889Z,3.00
2017-06-16T13:10:57.211Z,3.20
2017-06-16T13:13:25.514Z,2.20
2017-06-16T13:15:53.848Z,2.70
2017-06-16T13:18:23.366Z,2.97
2017-06-16T13:20:51.670Z,2.00
2017-06-16T13:23:19.974Z,2.17
2017-06-16T13:25:48.739Z,2.40
2017-06-16T13:28:17.037Z,2.20
2017-06-16T13:30:46.130Z,2.47
2017-06-16T13:33:14.454Z,2.60
2017-06-16T13:35:42.736Z,1.87
2017-06-16T13:38:12.462Z,2.07
2017-06-16T13:40:41.449Z,2.83
2017-06-16T13:43:10.490Z,2.70
2017-06-16T13:45:40.135Z,3.60
2017-06-16T13:48:08.752Z,2.50
2017-06-16T13:50:38.552Z,2.90
2017-06-16T13:53:07.604Z,2.70
2017-06-16T13:55:37.665Z,2.60
2017-06-16T13:58:05.822Z,2.70
2017-06-16T14:00:35.559Z,2.27
2017-06-16T14:03:07.564Z,2.17
2017-06-16T14:05:37.211Z,2.53
2017-06-16T14:08:05.760Z,2.77
2017-06-16T14:10:38.752Z,2.60
2017-06-16T14:13:08.546Z,2.37
2017-06-16T14:15:36.825Z,2.33
2017-06-16T14:18:07.025Z,2.30
2017-06-16T14:20:36.068Z,2.80
2017-06-16T14:23:05.106Z,2.57
2017-06-16T14:25:33.435Z,2.10
2017-06-16T14:28:03.067Z,2.57
2017-06-16T14:30:31.606Z,2.30
2017-06-16T14:33:00.691Z,2.00
2017-06-16T14:35:30.318Z,2.13
2017-06-16T14:37:59.851Z,2.30
2017-06-16T14:40:28.800Z,1.63
2017-06-16T14:42:57.484Z,1.90
2017-06-16T14:45:26.222Z,1.70
2017-06-16T14:47:55.340Z,1.97
2017-06-16T14:50:23.657Z,1.67
2017-06-16T14:52:52.015Z,2.30
2017-06-16T14:55:20.739Z,1.40
2017-06-16T14:57:50.210Z,1.90
2017-06-16T15:00:18.563Z,1.77
2017-06-16T15:02:46.967Z,2.00
2017-06-16T15:05:16.629Z,2.03
2017-06-16T15:07:45.348Z,2.00
2017-06-16T15:10:14.078Z,1.73
2017-06-16T15:12:43.715Z,2.00
2017-06-16T15:15:13.256Z,2.60
2017-06-16T15:17:42.587Z,1.90
2017-06-16T15:20:12.314Z,2.37
2017-06-16T15:22:46.302Z,2.43
2017-06-16T15:25:14.982Z,2.40
2017-06-16T15:27:43.258Z,2.03
2017-06-16T15:30:11.587Z,2.37
2017-06-16T15:32:39.891Z,1.60
2017-06-16T15:35:08.643Z,3.00
2017-06-16T15:37:38.261Z,2.63
2017-06-16T15:40:06.618Z,2.83
2017-06-16T15:42:34.897Z,2.53
2017-06-16T15:45:03.987Z,1.90
2017-06-16T15:47:33.031Z,2.40
2017-06-16T15:50:01.310Z,2.00
2017-06-16T15:52:30.399Z,3.30
2017-06-16T15:54:58.667Z,2.03
2017-06-16T15:57:26.943Z,2.33
2017-06-16T15:59:56.459Z,3.53
2017-06-16T16:02:25.140Z,2.70
2017-06-16T16:04:53.447Z,2.60
2017-06-16T16:07:22.951Z,2.30
2017-06-16T16:09:51.245Z,2.00
2017-06-16T16:12:19.536Z,3.03
2017-06-16T16:14:49.374Z,2.17
2017-06-16T16:17:18.059Z,2.47
2017-06-16T16:19:47.867Z,2.00
2017-06-16T16:22:16.232Z,2.73
2017-06-16T16:24:44.518Z,3.20
2017-06-16T16:27:12.807Z,2.80
2017-06-16T16:29:41.930Z,2.33
2017-06-16T16:32:10.202Z,2.30
2017-06-16T16:34:38.482Z,2.30
2017-06-16T16:37:08.315Z,2.20
2017-06-16T16:39:36.590Z,2.40
2017-06-16T16:42:06.395Z,2.20
2017-06-16T16:44:35.571Z,2.60
2017-06-16T16:47:05.228Z,3.00
2017-06-16T16:49:33.406Z,2.50
2017-06-16T16:52:01.731Z,2.03
2017-06-16T16:54:30.017Z,1.73
2017-06-16T16:56:59.428Z,2.53
2017-06-16T16:59:27.746Z,1.97
2017-06-16T17:01:56.039Z,2.47
2017-06-16T17:04:25.670Z,2.00
2017-06-16T17:06:55.375Z,2.17
2017-06-16T17:09:23.654Z,2.10
2017-06-16T17:11:52.695Z,1.90
2017-06-16T17:14:21.043Z,1.73
2017-06-16T17:16:50.111Z,1.80
2017-06-16T17:19:19.925Z,1.47
2017-06-16T17:21:48.275Z,1.37
2017-06-16T17:24:16.561Z,1.17
2017-06-16T17:26:46.283Z,1.60
2017-06-16T17:29:14.925Z,1.67
2017-06-16T17:31:44.711Z,1.43
2017-06-16T17:34:12.986Z,1.70
2017-06-16T17:36:42.662Z,1.10
2017-06-16T17:39:11.208Z,1.40
2017-06-16T17:41:40.838Z,1.37
2017-06-16T17:44:09.798Z,1.50
2017-06-16T17:46:38.079Z,1.60
2017-06-16T17:49:07.697Z,1.30
2017-06-16T17:51:36.314Z,1.33
2017-06-16T17:54:04.642Z,1.63
2017-06-16T17:56:33.726Z,1.60
2017-06-16T17:59:02.063Z,1.50
2017-06-16T18:01:31.843Z,1.63
2017-06-16T18:04:00.887Z,2.13
2017-06-16T18:06:29.979Z,2.07
2017-06-16T18:08:59.030Z,1.77
2017-06-16T18:11:27.308Z,1.77
2017-06-16T18:13:55.627Z,2.17
2017-06-16T18:16:24.667Z,2.67
2017-06-16T18:18:55.014Z,2.43
2017-06-16T18:21:23.340Z,2.53
2017-06-16T18:23:51.618Z,2.23
2017-06-16T18:26:21.290Z,1.83
2017-06-16T18:28:50.259Z,1.80
2017-06-16T18:31:19.320Z,2.50
2017-06-16T18:33:49.023Z,1.93
2017-06-16T18:36:18.777Z,2.03
2017-06-16T18:38:47.475Z,1.60
2017-06-16T18:41:15.768Z,1.63
2017-06-16T18:43:44.391Z,2.10
2017-06-16T18:46:13.810Z,2.10
2017-06-16T18:48:42.087Z,1.90
2017-06-16T18:51:12.803Z,1.50
2017-06-16T18:53:41.081Z,1.77
2017-06-16T18:56:09.351Z,2.00
2017-06-16T18:58:37.678Z,3.30
2017-06-16T19:01:07.092Z,2.37
2017-06-16T19:03:36.722Z,2.00
2017-06-16T19:06:05.373Z,1.90
2017-06-16T19:08:35.035Z,2.03
2017-06-16T19:11:03.979Z,2.27
2017-06-16T19:13:32.328Z,1.40
2017-06-16T19:16:01.946Z,1.60
2017-06-16T19:18:31.610Z,1.87
2017-06-16T19:20:59.943Z,1.73
2017-06-16T19:23:29.731Z,1.50
2017-06-16T19:25:58.006Z,1.80
2017-06-16T19:28:27.851Z,2.10
2017-06-16T19:30:56.522Z,2.13
2017-06-16T19:33:26.159Z,1.77
2017-06-16T19:35:54.370Z,1.80
2017-06-16T19:38:22.659Z,1.57
2017-06-16T19:40:51.001Z,2.30
2017-06-16T19:43:19.372Z,1.90
2017-06-16T19:45:47.684Z,1.60
2017-06-16T19:48:17.366Z,1.90
2017-06-16T19:50:45.991Z,1.90
2017-06-16T19:53:15.057Z,1.90
2017-06-16T19:55:44.706Z,2.17
2017-06-16T19:58:12.914Z,2.07
2017-06-16T20:00:42.623Z,2.57
2017-06-16T20:03:10.889Z,2.07
2017-06-16T20:05:39.994Z,1.97
2017-06-16T20:08:08.274Z,1.80
2017-06-16T20:10:37.696Z,2.03
2017-06-16T20:13:06.022Z,2.17
2017-06-16T20:15:34.296Z,1.90
2017-06-16T20:18:02.578Z,2.43
2017-06-16T20:20:30.935Z,2.30
2017-06-16T20:22:59.219Z,2.17
2017-06-16T20:25:27.495Z,2.53
2017-06-16T20:27:55.852Z,2.33
2017-06-16T20:30:25.267Z,2.20
2017-06-16T20:32:53.574Z,2.60
2017-06-16T20:35:21.927Z,2.37
2017-06-16T20:37:51.019Z,2.03
2017-06-16T20:40:20.678Z,1.70
2017-06-16T20:42:49.291Z,2.17
2017-06-16T20:45:17.588Z,2.20
2017-06-16T20:47:45.888Z,2.60
2017-06-16T20:50:14.519Z,2.60
2017-06-16T20:52:43.560Z,1.87
2017-06-16T20:55:12.239Z,2.13
2017-06-16T20:57:42.067Z,2.47
2017-06-16T21:00:10.347Z,2.37
2017-06-16T21:02:40.130Z,2.73
2017-06-16T21:05:08.472Z,2.43
2017-06-16T21:07:37.519Z,2.13
2017-06-16T21:10:06.935Z,2.37
2017-06-16T21:12:35.273Z,2.27
2017-06-16T21:15:03.573Z,2.40
2017-06-16T21:17:33.207Z,2.70
2017-06-16T21:20:01.807Z,2.03
2017-06-16T21:22:37.070Z,3.00
2017-06-16T21:25:05.271Z,2.47
2017-06-16T21:27:33.554Z,3.67
2017-06-16T21:30:01.836Z,2.93
2017-06-16T21:32:30.539Z,2.50
2017-06-16T21:34:59.583Z,4.63
2017-06-16T21:37:27.858Z,2.40
2017-06-16T21:39:56.207Z,2.80
2017-06-16T21:42:24.483Z,2.50
2017-06-16T21:44:52.759Z,2.47
2017-06-16T21:47:21.138Z,2.33
2017-06-16T21:49:50.555Z,2.20
2017-06-16T21:52:19.251Z,2.13
2017-06-16T21:54:47.624Z,2.60
2017-06-16T21:57:16.705Z,2.33
2017-06-16T21:59:46.388Z,2.47
2017-06-16T22:02:14.987Z,2.40
2017-06-16T22:04:44.611Z,2.97
2017-06-16T22:07:13.162Z,2.27
2017-06-16T22:09:42.999Z,2.60
2017-06-16T22:12:11.274Z,2.57
2017-06-16T22:14:39.558Z,2.03
2017-06-16T22:17:07.916Z,2.60
2017-06-16T22:19:36.203Z,3.07
2017-06-16T22:22:05.855Z,2.70
2017-06-16T22:24:35.412Z,2.10
2017-06-16T22:27:03.967Z,3.10
2017-06-16T22:29:33.007Z,2.40
2017-06-16T22:32:01.743Z,2.63
2017-06-16T22:34:30.410Z,2.43
2017-06-16T22:36:58.686Z,3.07
2017-06-16T22:39:27.407Z,2.80
2017-06-16T22:41:57.038Z,2.70
2017-06-16T22:44:25.586Z,3.40
2017-06-16T22:46:53.920Z,2.47
2017-06-16T22:49:22.963Z,3.50
2017-06-16T22:51:52.587Z,2.53
2017-06-16T22:54:21.216Z,2.93
2017-06-16T22:56:49.520Z,3.13
2017-06-16T22:59:17.823Z,2.73
2017-06-16T23:01:46.204Z,2.93
2017-06-16T23:04:14.482Z,3.00
2017-06-16T23:06:43.892Z,2.73
2017-06-16T23:09:12.218Z,2.93
2017-06-16T23:11:40.512Z,2.50
2017-06-16T23:14:08.791Z,2.57
2017-06-16T23:16:37.886Z,2.77
2017-06-16T23:19:06.931Z,3.63
2017-06-16T23:21:35.228Z,2.90
2017-06-16T23:24:04.343Z,2.67
2017-06-16T23:26:32.631Z,2.83
2017-06-16T23:29:02.072Z,3.20
2017-06-16T23:31:30.808Z,2.90
2017-06-16T23:34:00.442Z,3.53
2017-06-16T23:36:28.990Z,4.13
2017-06-16T23:38:58.079Z,3.60
2017-06-16T23:41:27.141Z,3.20
2017-06-16T23:43:56.175Z,2.77
2017-06-16T23:46:24.499Z,3.97
2017-06-16T23:48:53.543Z,3.40
2017-06-16T23:51:21.822Z,3.27
2017-06-16T23:53:50.942Z,3.50
2017-06-16T23:56:20.371Z,3.97
2017-06-16T23:58:50.015Z,4.20
